sensor_id;sensor_type;location;lat;lon;timestamp;pressure;altitude;pressure_sealevel;temperature;humidity
17254;BME280;32542;52.832;13.816;2024-03-08T00:00:05;102419.59;;;20.88;46.01
17254;BME280;32542;52.832;13.816;2024-03-08T00:03:12;102413.44;;;20.86;46.14
17254;BME280;32542;52.832;13.816;2024-03-08T00:06:16;102414.31;;;20.85;46.19
17254;BME280;32542;52.832;13.816;2024-03-08T00:09:19;102414.34;;;20.84;46.15
17254;BME280;32542;52.832;13.816;2024-03-08T00:12:23;102418.81;;;20.83;46.26
17254;BME280;32542;52.832;13.816;2024-03-08T00:15:27;102417.91;;;20.83;46.23
17254;BME280;32542;52.832;13.816;2024-03-08T00:18:31;102418.84;;;20.80;46.26
17254;BME280;32542;52.832;13.816;2024-03-08T00:21:35;102410.03;;;20.78;45.98
17254;BME280;32542;52.832;13.816;2024-03-08T00:24:38;102409.19;;;20.78;45.88
17254;BME280;32542;52.832;13.816;2024-03-08T00:27:41;102411.84;;;20.76;45.81
17254;BME280;32542;52.832;13.816;2024-03-08T00:30:44;102411.00;;;20.74;45.87
17254;BME280;32542;52.832;13.816;2024-03-08T00:33:48;102414.53;;;20.75;46.14
17254;BME280;32542;52.832;13.816;2024-03-08T00:36:52;102415.47;;;20.74;46.01
17254;BME280;32542;52.832;13.816;2024-03-08T00:39:55;102413.66;;;20.74;46.15
17254;BME280;32542;52.832;13.816;2024-03-08T00:42:58;102405.72;;;20.73;46.29
17254;BME280;32542;52.832;13.816;2024-03-08T00:46:00;102412.81;;;20.74;46.26
17254;BME280;32542;52.832;13.816;2024-03-08T00:49:03;102404.84;;;20.72;46.30
17254;BME280;32542;52.832;13.816;2024-03-08T00:52:08;102399.50;;;20.72;46.35
17254;BME280;32542;52.832;13.816;2024-03-08T00:55:10;102403.09;;;20.71;46.35
17254;BME280;32542;52.832;13.816;2024-03-08T00:58:13;102396.88;;;20.71;46.46
17254;BME280;32542;52.832;13.816;2024-03-08T01:01:18;102396.94;;;20.69;46.44
17254;BME280;32542;52.832;13.816;2024-03-08T01:04:21;102394.28;;;20.69;46.34
17254;BME280;32542;52.832;13.816;2024-03-08T01:07:26;102392.50;;;20.68;46.43
17254;BME280;32542;52.832;13.816;2024-03-08T01:10:28;102388.09;;;20.67;46.41
17254;BME280;32542;52.832;13.816;2024-03-08T01:13:31;102388.09;;;20.67;46.53
17254;BME280;32542;52.832;13.816;2024-03-08T01:16:34;102384.56;;;20.67;46.58
17254;BME280;32542;52.832;13.816;2024-03-08T01:19:37;102380.13;;;20.67;46.66
17254;BME280;32542;52.832;13.816;2024-03-08T01:22:41;102381.84;;;20.68;46.60
17254;BME280;32542;52.832;13.816;2024-03-08T01:25:44;102381.84;;;20.68;46.57
17254;BME280;32542;52.832;13.816;2024-03-08T01:28:47;102379.19;;;20.68;46.64
17254;BME280;32542;52.832;13.816;2024-03-08T01:31:49;102386.28;;;20.69;46.62
17254;BME280;32542;52.832;13.816;2024-03-08T01:34:54;102383.63;;;20.68;46.50
17254;BME280;32542;52.832;13.816;2024-03-08T01:37:58;102380.97;;;20.68;46.44
17254;BME280;32542;52.832;13.816;2024-03-08T01:41:01;102386.28;;;20.68;46.54
17254;BME280;32542;52.832;13.816;2024-03-08T01:44:04;102378.34;;;20.66;46.56
17254;BME280;32542;52.832;13.816;2024-03-08T01:47:08;102362.38;;;20.66;46.69
17254;BME280;32542;52.832;13.816;2024-03-08T01:50:11;102367.69;;;20.66;46.55
17254;BME280;32542;52.832;13.816;2024-03-08T01:53:17;102359.72;;;20.66;46.74
17254;BME280;32542;52.832;13.816;2024-03-08T01:56:21;102365.97;;;20.65;46.63
17254;BME280;32542;52.832;13.816;2024-03-08T01:59:24;102360.66;;;20.65;46.58
17254;BME280;32542;52.832;13.816;2024-03-08T02:02:28;102354.44;;;20.65;46.67
17254;BME280;32542;52.832;13.816;2024-03-08T02:05:33;102349.06;;;20.66;46.81
17254;BME280;32542;52.832;13.816;2024-03-08T02:08:37;102346.41;;;20.66;46.81
17254;BME280;32542;52.832;13.816;2024-03-08T02:11:41;102348.19;;;20.67;46.71
17254;BME280;32542;52.832;13.816;2024-03-08T02:14:44;102343.75;;;20.66;46.79
17254;BME280;32542;52.832;13.816;2024-03-08T02:17:47;102335.75;;;20.66;46.66
17254;BME280;32542;52.832;13.816;2024-03-08T02:20:52;102336.66;;;20.67;46.60
17254;BME280;32542;52.832;13.816;2024-03-08T02:23:55;102332.22;;;20.66;46.81
17254;BME280;32542;52.832;13.816;2024-03-08T02:26:58;102330.44;;;20.66;46.69
17254;BME280;32542;52.832;13.816;2024-03-08T02:30:01;102321.63;;;20.64;46.79
17254;BME280;32542;52.832;13.816;2024-03-08T02:33:05;102323.38;;;20.65;46.67
17254;BME280;32542;52.832;13.816;2024-03-08T02:36:09;102324.28;;;20.64;46.73
17254;BME280;32542;52.832;13.816;2024-03-08T02:39:13;102320.72;;;20.65;46.80
17254;BME280;32542;52.832;13.816;2024-03-08T02:42:16;102323.38;;;20.65;46.65
17254;BME280;32542;52.832;13.816;2024-03-08T02:45:19;102324.22;;;20.66;46.75
17254;BME280;32542;52.832;13.816;2024-03-08T02:48:22;102318.91;;;20.66;46.82
17254;BME280;32542;52.832;13.816;2024-03-08T02:51:26;102313.59;;;20.66;46.67
17254;BME280;32542;52.832;13.816;2024-03-08T02:54:32;102323.38;;;20.65;46.81
17254;BME280;32542;52.832;13.816;2024-03-08T02:57:36;102319.78;;;20.66;46.74
17254;BME280;32542;52.832;13.816;2024-03-08T03:00:39;102317.13;;;20.66;46.84
17254;BME280;32542;52.832;13.816;2024-03-08T03:03:42;102317.13;;;20.66;46.72
17254;BME280;32542;52.832;13.816;2024-03-08T03:06:46;102319.78;;;20.66;46.51
17254;BME280;32542;52.832;13.816;2024-03-08T03:09:49;102310.91;;;20.66;46.16
17254;BME280;32542;52.832;13.816;2024-03-08T03:12:52;102312.72;;;20.65;46.08
17254;BME280;32542;52.832;13.816;2024-03-08T03:15:55;102300.31;;;20.64;46.36
17254;BME280;32542;52.832;13.816;2024-03-08T03:18:59;102302.97;;;20.64;46.22
17254;BME280;32542;52.832;13.816;2024-03-08T03:22:05;102300.31;;;20.64;46.37
17254;BME280;32542;52.832;13.816;2024-03-08T03:25:11;102308.31;;;20.64;46.46
17254;BME280;32542;52.832;13.816;2024-03-08T03:28:14;102301.25;;;20.63;46.41
17254;BME280;32542;52.832;13.816;2024-03-08T03:31:19;102303.91;;;20.63;46.41
17254;BME280;32542;52.832;13.816;2024-03-08T03:34:25;102296.81;;;20.62;46.55
17254;BME280;32542;52.832;13.816;2024-03-08T03:37:29;102304.75;;;20.64;46.58
17254;BME280;32542;52.832;13.816;2024-03-08T03:40:33;102303.91;;;20.63;46.49
17254;BME280;32542;52.832;13.816;2024-03-08T03:43:35;102304.75;;;20.65;46.48
17254;BME280;32542;52.832;13.816;2024-03-08T03:46:41;102299.38;;;20.67;46.48
17254;BME280;32542;52.832;13.816;2024-03-08T03:49:45;102301.16;;;20.66;46.57
17254;BME280;32542;52.832;13.816;2024-03-08T03:52:50;102303.81;;;20.66;46.47
17254;BME280;32542;52.832;13.816;2024-03-08T03:55:52;102302.94;;;20.67;46.56
17254;BME280;32542;52.832;13.816;2024-03-08T03:58:56;102302.94;;;20.67;46.48
17254;BME280;32542;52.832;13.816;2024-03-08T04:01:59;102300.25;;;20.67;46.46
17254;BME280;32542;52.832;13.816;2024-03-08T04:05:01;102302.00;;;20.68;46.54
17254;BME280;32542;52.832;13.816;2024-03-08T04:08:06;102301.09;;;20.68;46.47
17254;BME280;32542;52.832;13.816;2024-03-08T04:11:09;102298.44;;;20.69;46.54
17254;BME280;32542;52.832;13.816;2024-03-08T04:14:12;102298.44;;;20.69;46.55
17254;BME280;32542;52.832;13.816;2024-03-08T04:17:15;102301.09;;;20.69;46.54
17254;BME280;32542;52.832;13.816;2024-03-08T04:20:19;102305.50;;;20.70;46.43
17254;BME280;32542;52.832;13.816;2024-03-08T04:23:24;102298.34;;;20.72;46.49
17254;BME280;32542;52.832;13.816;2024-03-08T04:26:27;102288.53;;;20.74;46.40
17254;BME280;32542;52.832;13.816;2024-03-08T04:29:30;102286.75;;;20.75;nan
17254;BME280;32542;52.832;13.816;2024-03-08T04:32:34;102288.53;;;20.74;46.46
17254;BME280;32542;52.832;13.816;2024-03-08T04:35:37;102284.94;;;20.77;46.49
17254;BME280;32542;52.832;13.816;2024-03-08T04:38:42;102277.88;;;20.76;46.49
17254;BME280;32542;52.832;13.816;2024-03-08T04:41:45;102285.81;;;20.77;46.56
17254;BME280;32542;52.832;13.816;2024-03-08T04:44:48;102276.06;;;20.76;46.56
17254;BME280;32542;52.832;13.816;2024-03-08T04:47:51;102275.16;;;20.77;46.47
17254;BME280;32542;52.832;13.816;2024-03-08T04:50:54;102272.56;;;20.76;46.46
17254;BME280;32542;52.832;13.816;2024-03-08T04:53:59;102278.72;;;20.76;46.35
17254;BME280;32542;52.832;13.816;2024-03-08T04:57:02;102284.06;;;20.76;46.59
17254;BME280;32542;52.832;13.816;2024-03-08T05:00:10;102280.50;;;20.77;46.50
17254;BME280;32542;52.832;13.816;2024-03-08T05:03:14;102278.72;;;20.76;46.49
17254;BME280;32542;52.832;13.816;2024-03-08T05:06:16;102284.06;;;20.76;46.51
17254;BME280;32542;52.832;13.816;2024-03-08T05:09:21;102278.72;;;20.76;46.47
17254;BME280;32542;52.832;13.816;2024-03-08T05:12:25;102266.28;;;20.77;46.44
17254;BME280;32542;52.832;13.816;2024-03-08T05:15:28;102272.56;;;20.76;46.54
17254;BME280;32542;52.832;13.816;2024-03-08T05:18:31;102278.78;;;20.75;46.51
17254;BME280;32542;52.832;13.816;2024-03-08T05:21:34;102276.09;;;20.75;46.53
17254;BME280;32542;52.832;13.816;2024-03-08T05:24:39;102277.00;;;20.75;46.56
17254;BME280;32542;52.832;13.816;2024-03-08T05:27:42;102268.16;;;20.73;46.46
17254;BME280;32542;52.832;13.816;2024-03-08T05:30:44;102267.28;;;20.73;46.61
17254;BME280;32542;52.832;13.816;2024-03-08T05:33:47;102268.16;;;20.73;46.52
17254;BME280;32542;52.832;13.816;2024-03-08T05:36:50;102272.59;;;20.73;46.52
17254;BME280;32542;52.832;13.816;2024-03-08T05:39:54;102269.06;;;20.72;46.58
17254;BME280;32542;52.832;13.816;2024-03-08T05:42:57;102271.72;;;20.72;46.59
17254;BME280;32542;52.832;13.816;2024-03-08T05:46:00;102271.72;;;20.72;46.64
17254;BME280;32542;52.832;13.816;2024-03-08T05:49:06;102266.41;;;20.72;46.73
17254;BME280;32542;52.832;13.816;2024-03-08T05:52:12;102262.88;;;20.72;46.56
17254;BME280;32542;52.832;13.816;2024-03-08T05:55:17;102261.06;;;20.72;46.62
17254;BME280;32542;52.832;13.816;2024-03-08T05:58:20;102263.75;;;20.72;46.54
17254;BME280;32542;52.832;13.816;2024-03-08T06:01:23;102261.06;;;20.72;46.56
17254;BME280;32542;52.832;13.816;2024-03-08T06:04:26;102261.06;;;20.72;46.68
17254;BME280;32542;52.832;13.816;2024-03-08T06:07:29;102261.06;;;20.72;46.65
17254;BME280;32542;52.832;13.816;2024-03-08T06:10:33;102262.00;;;20.71;46.78
17254;BME280;32542;52.832;13.816;2024-03-08T06:13:37;102274.38;;;20.72;46.73
17254;BME280;32542;52.832;13.816;2024-03-08T06:16:40;102270.88;;;20.70;46.71
17254;BME280;32542;52.832;13.816;2024-03-08T06:19:42;102268.22;;;20.70;46.61
17254;BME280;32542;52.832;13.816;2024-03-08T06:22:45;102273.56;;;20.70;46.71
17254;BME280;32542;52.832;13.816;2024-03-08T06:25:49;102262.91;;;20.70;46.67
17254;BME280;32542;52.832;13.816;2024-03-08T06:28:52;102275.31;;;20.71;46.68
17254;BME280;32542;52.832;13.816;2024-03-08T06:31:55;102274.38;;;20.72;46.68
17254;BME280;32542;52.832;13.816;2024-03-08T06:34:58;102279.72;;;20.72;46.70
17254;BME280;32542;52.832;13.816;2024-03-08T06:38:01;102271.72;;;20.72;46.63
17254;BME280;32542;52.832;13.816;2024-03-08T06:41:05;102267.28;;;20.73;46.64
17254;BME280;32542;52.832;13.816;2024-03-08T06:44:08;102266.41;;;20.72;46.72
17254;BME280;32542;52.832;13.816;2024-03-08T06:47:11;102273.50;;;20.73;46.69
17254;BME280;32542;52.832;13.816;2024-03-08T06:50:13;102269.94;;;20.73;46.59
17254;BME280;32542;52.832;13.816;2024-03-08T06:53:17;102269.06;;;20.74;46.68
17254;BME280;32542;52.832;13.816;2024-03-08T06:56:25;102271.72;;;20.72;46.42
17254;BME280;32542;52.832;13.816;2024-03-08T06:59:28;102275.31;;;20.71;45.61
17254;BME280;32542;52.832;13.816;2024-03-08T07:02:31;102277.09;;;20.71;45.23
17254;BME280;32542;52.832;13.816;2024-03-08T07:05:34;102284.19;;;20.70;45.02
17254;BME280;32542;52.832;13.816;2024-03-08T07:08:37;102276.22;;;20.70;45.04
17254;BME280;32542;52.832;13.816;2024-03-08T07:11:41;102279.81;;;20.69;44.99
17254;BME280;32542;52.832;13.816;2024-03-08T07:14:46;102287.84;;;20.66;45.57
17254;BME280;32542;52.832;13.816;2024-03-08T07:17:49;102283.56;;;20.61;45.41
17254;BME280;32542;52.832;13.816;2024-03-08T07:20:55;102286.31;;;20.56;44.68
17254;BME280;32542;52.832;13.816;2024-03-08T07:23:57;102290.84;;;20.53;44.24
17254;BME280;32542;52.832;13.816;2024-03-08T07:27:22;102287.34;;;20.49;44.03
17254;BME280;32542;52.832;13.816;2024-03-08T07:30:25;102283.94;;;20.44;43.68
17254;BME280;32542;52.832;13.816;2024-03-08T07:33:52;102276.91;;;20.40;43.17
17254;BME280;32542;52.832;13.816;2024-03-08T07:36:55;102282.25;;;20.39;42.88
17254;BME280;32542;52.832;13.816;2024-03-08T07:39:59;102270.78;;;20.37;43.23
17254;BME280;32542;52.832;13.816;2024-03-08T07:43:03;102271.59;;;20.40;41.62
17254;BME280;32542;52.832;13.816;2024-03-08T07:46:06;102267.00;;;20.48;40.36
17254;BME280;32542;52.832;13.816;2024-03-08T07:49:34;102256.09;;;20.57;38.85
17254;BME280;32542;52.832;13.816;2024-03-08T07:53:39;102262.00;;;20.71;39.35
17254;BME280;32542;52.832;13.816;2024-03-08T07:56:42;102255.47;;;20.84;39.61
17254;BME280;32542;52.832;13.816;2024-03-08T07:59:47;102252.50;;;20.96;39.98
17254;BME280;32542;52.832;13.816;2024-03-08T08:02:50;102255.81;;;21.08;40.16
17254;BME280;32542;52.832;13.816;2024-03-08T08:05:53;102247.56;;;21.17;40.23
17254;BME280;32542;52.832;13.816;2024-03-08T08:08:56;102250.09;;;21.23;40.50
17254;BME280;32542;52.832;13.816;2024-03-08T08:11:59;102245.50;;;21.28;40.74
17254;BME280;32542;52.832;13.816;2024-03-08T08:15:05;102249.00;;;21.30;40.76
17254;BME280;32542;52.832;13.816;2024-03-08T08:18:08;102239.16;;;21.32;41.02
17254;BME280;32542;52.832;13.816;2024-03-08T08:21:11;102236.50;;;21.32;41.08
17254;BME280;32542;52.832;13.816;2024-03-08T08:24:14;102237.38;;;21.32;41.28
17254;BME280;32542;52.832;13.816;2024-03-08T08:27:17;102242.72;;;21.32;41.58
17254;BME280;32542;52.832;13.816;2024-03-08T08:30:21;102222.34;;;21.31;41.54
17254;BME280;32542;52.832;13.816;2024-03-08T08:33:30;102229.44;;;21.31;41.72
17254;BME280;32542;52.832;13.816;2024-03-08T08:36:32;102228.63;;;21.29;42.02
17254;BME280;32542;52.832;13.816;2024-03-08T08:39:35;102228.63;;;21.27;42.13
17254;BME280;32542;52.832;13.816;2024-03-08T08:42:39;102222.44;;;21.27;42.21
17254;BME280;32542;52.832;13.816;2024-03-08T08:45:44;102206.53;;;21.24;42.50
17254;BME280;32542;52.832;13.816;2024-03-08T08:48:48;102219.03;;;21.22;42.66
17254;BME280;32542;52.832;13.816;2024-03-08T08:51:52;102216.38;;;21.22;42.67
17254;BME280;32542;52.832;13.816;2024-03-08T08:54:59;102214.59;;;21.21;42.87
17254;BME280;32542;52.832;13.816;2024-03-08T08:58:02;102214.59;;;21.21;43.00
17254;BME280;32542;52.832;13.816;2024-03-08T09:01:07;102209.31;;;21.19;43.09
17254;BME280;32542;52.832;13.816;2024-03-08T09:04:11;102206.66;;;21.19;43.29
17254;BME280;32542;52.832;13.816;2024-03-08T09:07:14;102194.28;;;21.17;43.28
17254;BME280;32542;52.832;13.816;2024-03-08T09:10:18;102193.44;;;21.16;43.53
17254;BME280;32542;52.832;13.816;2024-03-08T09:13:21;102191.66;;;21.15;43.53
17254;BME280;32542;52.832;13.816;2024-03-08T09:16:34;102183.72;;;21.14;43.69
17254;BME280;32542;52.832;13.816;2024-03-08T09:19:38;102180.22;;;21.12;43.88
17254;BME280;32542;52.832;13.816;2024-03-08T09:22:43;102182.91;;;21.10;43.88
17254;BME280;32542;52.832;13.816;2024-03-08T09:25:46;102180.31;;;21.09;43.88
17254;BME280;32542;52.832;13.816;2024-03-08T09:28:49;102178.56;;;21.08;43.94
17254;BME280;32542;52.832;13.816;2024-03-08T09:31:53;102183.00;;;21.07;44.14
17254;BME280;32542;52.832;13.816;2024-03-08T09:34:56;102175.06;;;21.06;44.22
17254;BME280;32542;52.832;13.816;2024-03-08T09:37:59;102175.97;;;21.05;44.29
17254;BME280;32542;52.832;13.816;2024-03-08T09:41:03;102186.63;;;21.05;44.31
17254;BME280;32542;52.832;13.816;2024-03-08T09:44:06;102170.69;;;21.03;44.43
17254;BME280;32542;52.832;13.816;2024-03-08T09:47:11;102166.25;;;21.04;44.56
17254;BME280;32542;52.832;13.816;2024-03-08T09:50:15;102164.50;;;21.03;44.53
17254;BME280;32542;52.832;13.816;2024-03-08T09:53:19;102157.41;;;21.02;44.68
17254;BME280;32542;52.832;13.816;2024-03-08T09:56:24;102156.50;;;21.01;44.78
17254;BME280;32542;52.832;13.816;2024-03-08T09:59:29;102156.50;;;21.01;44.87
17254;BME280;32542;52.832;13.816;2024-03-08T10:02:50;102153.88;;;20.99;45.19
17254;BME280;32542;52.832;13.816;2024-03-08T10:05:56;102148.53;;;21.01;45.35
17254;BME280;32542;52.832;13.816;2024-03-08T10:09:02;102143.19;;;21.01;45.30
17254;BME280;32542;52.832;13.816;2024-03-08T10:12:08;102137.00;;;21.00;45.19
17254;BME280;32542;52.832;13.816;2024-03-08T10:15:12;102139.66;;;21.00;45.14
17254;BME280;32542;52.832;13.816;2024-03-08T10:18:19;102131.72;;;20.99;44.84
17254;BME280;32542;52.832;13.816;2024-03-08T10:21:23;102135.22;;;20.99;44.67
17254;BME280;32542;52.832;13.816;2024-03-08T10:24:26;102129.06;;;20.97;44.89
17254;BME280;32542;52.832;13.816;2024-03-08T10:27:30;102124.66;;;20.96;44.94
17254;BME280;32542;52.832;13.816;2024-03-08T10:30:32;102119.34;;;20.96;45.06
17254;BME280;32542;52.832;13.816;2024-03-08T10:33:37;102116.69;;;20.96;45.19
17254;BME280;32542;52.832;13.816;2024-03-08T10:36:41;102110.47;;;20.96;45.22
17254;BME280;32542;52.832;13.816;2024-03-08T10:39:50;102115.81;;;20.96;45.31
17254;BME280;32542;52.832;13.816;2024-03-08T10:42:56;102111.34;;;20.96;45.39
17254;BME280;32542;52.832;13.816;2024-03-08T10:46:08;102107.81;;;20.96;45.56
17254;BME280;32542;52.832;13.816;2024-03-08T10:49:17;102106.91;;;20.97;45.63
17254;BME280;32542;52.832;13.816;2024-03-08T10:52:20;102101.59;;;20.97;45.67
17254;BME280;32542;52.832;13.816;2024-03-08T10:55:24;102103.31;;;20.98;45.58
17254;BME280;32542;52.832;13.816;2024-03-08T10:58:29;102098.94;;;20.97;45.69
17254;BME280;32542;52.832;13.816;2024-03-08T11:01:33;102091.78;;;20.97;45.97
17254;BME280;32542;52.832;13.816;2024-03-08T11:04:38;102079.41;;;20.96;46.19
17254;BME280;32542;52.832;13.816;2024-03-08T11:07:42;102079.41;;;20.96;46.43
17254;BME280;32542;52.832;13.816;2024-03-08T11:10:49;102078.47;;;20.97;46.68
17254;BME280;32542;52.832;13.816;2024-03-08T11:13:54;102073.19;;;20.96;47.02
17254;BME280;32542;52.832;13.816;2024-03-08T11:16:57;102066.09;;;20.96;47.17
17254;BME280;32542;52.832;13.816;2024-03-08T11:20:02;102060.75;;;20.96;47.28
17254;BME280;32542;52.832;13.816;2024-03-08T11:23:08;102054.56;;;20.96;47.41
17254;BME280;32542;52.832;13.816;2024-03-08T11:26:19;102055.44;;;20.96;47.47
17254;BME280;32542;52.832;13.816;2024-03-08T11:29:33;102056.31;;;20.97;47.62
17254;BME280;32542;52.832;13.816;2024-03-08T11:32:38;102041.28;;;20.94;47.32
17254;BME280;32542;52.832;13.816;2024-03-08T11:35:43;102039.53;;;20.93;46.59
17254;BME280;32542;52.832;13.816;2024-03-08T11:38:48;102026.31;;;20.90;45.49
17254;BME280;32542;52.832;13.816;2024-03-08T11:41:51;102028.09;;;20.90;45.72
17254;BME280;32542;52.832;13.816;2024-03-08T11:44:55;102021.91;;;20.89;45.79
17254;BME280;32542;52.832;13.816;2024-03-08T11:47:59;102027.22;;;20.89;46.06
17254;BME280;32542;52.832;13.816;2024-03-08T11:51:04;102010.34;;;20.90;46.36
17254;BME280;32542;52.832;13.816;2024-03-08T11:54:11;102016.50;;;20.91;46.50
17254;BME280;32542;52.832;13.816;2024-03-08T11:57:14;102001.41;;;20.91;46.62
17254;BME280;32542;52.832;13.816;2024-03-08T12:00:18;101999.59;;;20.93;46.65
17254;BME280;32542;52.832;13.816;2024-03-08T12:03:27;102000.41;;;20.95;46.75
17254;BME280;32542;52.832;13.816;2024-03-08T12:06:38;102004.84;;;20.96;46.84
17254;BME280;32542;52.832;13.816;2024-03-08T12:09:42;102006.56;;;20.97;46.65
17254;BME280;32542;52.832;13.816;2024-03-08T12:12:49;102003.91;;;20.97;46.60
17254;BME280;32542;52.832;13.816;2024-03-08T12:15:53;101994.13;;;20.98;46.54
17254;BME280;32542;52.832;13.816;2024-03-08T12:18:56;101995.91;;;20.97;nan
17254;BME280;32542;52.832;13.816;2024-03-08T12:22:09;101981.69;;;20.98;46.36
17254;BME280;32542;52.832;13.816;2024-03-08T12:25:12;101987.91;;;20.99;46.36
17254;BME280;32542;52.832;13.816;2024-03-08T12:28:15;101983.41;;;20.99;46.42
17254;BME280;32542;52.832;13.816;2024-03-08T12:31:21;101978.09;;;20.99;46.38
17254;BME280;32542;52.832;13.816;2024-03-08T12:34:24;101978.97;;;21.00;46.34
17254;BME280;32542;52.832;13.816;2024-03-08T12:37:31;101974.53;;;21.00;46.41
17254;BME280;32542;52.832;13.816;2024-03-08T12:40:34;101967.44;;;20.99;46.34
17254;BME280;32542;52.832;13.816;2024-03-08T12:43:42;101962.13;;;20.99;46.23
17254;BME280;32542;52.832;13.816;2024-03-08T12:46:50;101958.59;;;20.99;46.13
17254;BME280;32542;52.832;13.816;2024-03-08T12:49:55;101955.06;;;20.98;46.19
17254;BME280;32542;52.832;13.816;2024-03-08T12:52:59;101950.63;;;20.99;46.26
17254;BME280;32542;52.832;13.816;2024-03-08T12:56:05;101943.47;;;20.99;46.20
17254;BME280;32542;52.832;13.816;2024-03-08T12:59:09;101935.50;;;20.99;46.05
17254;BME280;32542;52.832;13.816;2024-03-08T13:02:14;101939.97;;;20.99;46.15
17254;BME280;32542;52.832;13.816;2024-03-08T13:05:18;101929.31;;;20.99;46.23
17254;BME280;32542;52.832;13.816;2024-03-08T13:08:23;101928.63;;;20.92;41.91
17254;BME280;32542;52.832;13.816;2024-03-08T13:11:29;101917.91;;;20.65;38.23
17254;BME280;32542;52.832;13.816;2024-03-08T13:14:32;101911.00;;;20.58;38.56
17254;BME280;32542;52.832;13.816;2024-03-08T13:17:37;101910.13;;;20.57;38.51
17254;BME280;32542;52.832;13.816;2024-03-08T13:20:41;101910.13;;;20.57;39.18
17254;BME280;32542;52.832;13.816;2024-03-08T13:23:52;101908.28;;;20.59;39.09
17254;BME280;32542;52.832;13.816;2024-03-08T13:26:55;101910.00;;;20.62;39.66
17254;BME280;32542;52.832;13.816;2024-03-08T13:29:58;101899.34;;;20.63;39.90
17254;BME280;32542;52.832;13.816;2024-03-08T13:33:01;101893.00;;;20.67;40.37
17254;BME280;32542;52.832;13.816;2024-03-08T13:36:07;101896.44;;;20.71;40.49
17254;BME280;32542;52.832;13.816;2024-03-08T13:39:17;101882.13;;;20.75;40.76
17254;BME280;32542;52.832;13.816;2024-03-08T13:42:22;101890.88;;;20.78;40.96
17254;BME280;32542;52.832;13.816;2024-03-08T13:45:25;101881.84;;;20.84;41.13
17254;BME280;32542;52.832;13.816;2024-03-08T13:48:28;101888.88;;;20.86;41.18
17254;BME280;32542;52.832;13.816;2024-03-08T13:51:31;101870.13;;;20.89;41.20
17254;BME280;32542;52.832;13.816;2024-03-08T13:54:35;101863.84;;;20.92;41.36
17254;BME280;32542;52.832;13.816;2024-03-08T13:57:40;101868.19;;;20.94;41.53
17254;BME280;32542;52.832;13.816;2024-03-08T14:00:43;101857.50;;;20.96;41.68
17254;BME280;32542;52.832;13.816;2024-03-08T14:03:47;101853.03;;;20.96;41.84
17254;BME280;32542;52.832;13.816;2024-03-08T14:06:50;101855.72;;;20.96;42.04
17254;BME280;32542;52.832;13.816;2024-03-08T14:10:03;101852.13;;;20.97;42.18
17254;BME280;32542;52.832;13.816;2024-03-08T14:13:08;101849.44;;;20.97;42.21
17254;BME280;32542;52.832;13.816;2024-03-08T14:16:13;101850.28;;;20.99;42.36
17254;BME280;32542;52.832;13.816;2024-03-08T14:19:17;101846.69;;;21.00;42.34
17254;BME280;32542;52.832;13.816;2024-03-08T14:22:20;101840.50;;;21.00;42.17
17254;BME280;32542;52.832;13.816;2024-03-08T14:25:24;101840.50;;;21.00;42.52
17254;BME280;32542;52.832;13.816;2024-03-08T14:28:27;101836.94;;;20.99;42.50
17254;BME280;32542;52.832;13.816;2024-03-08T14:31:30;101834.28;;;20.99;42.54
17254;BME280;32542;52.832;13.816;2024-03-08T14:34:33;101822.81;;;20.97;42.67
17254;BME280;32542;52.832;13.816;2024-03-08T14:37:36;101814.81;;;20.97;42.65
17254;BME280;32542;52.832;13.816;2024-03-08T14:40:41;101815.78;;;20.96;42.76
17254;BME280;32542;52.832;13.816;2024-03-08T14:43:48;101810.50;;;20.95;42.89
17254;BME280;32542;52.832;13.816;2024-03-08T14:46:51;101804.28;;;20.94;42.83
17254;BME280;32542;52.832;13.816;2024-03-08T14:49:54;101802.53;;;20.93;42.89
17254;BME280;32542;52.832;13.816;2024-03-08T14:52:58;101807.88;;;20.93;42.94
17254;BME280;32542;52.832;13.816;2024-03-08T14:56:04;101794.56;;;20.93;42.85
17254;BME280;32542;52.832;13.816;2024-03-08T14:59:07;101801.69;;;20.93;42.85
17254;BME280;32542;52.832;13.816;2024-03-08T15:02:10;101792.84;;;20.91;42.80
17254;BME280;32542;52.832;13.816;2024-03-08T15:05:14;101792.00;;;20.90;42.86
17254;BME280;32542;52.832;13.816;2024-03-08T15:08:22;101782.25;;;20.89;42.90
17254;BME280;32542;52.832;13.816;2024-03-08T15:11:28;101784.03;;;20.89;43.01
17254;BME280;32542;52.832;13.816;2024-03-08T15:14:31;101780.53;;;20.88;43.06
17254;BME280;32542;52.832;13.816;2024-03-08T15:17:34;101775.22;;;20.88;43.09
17254;BME280;32542;52.832;13.816;2024-03-08T15:20:38;101770.78;;;20.87;43.09
17254;BME280;32542;52.832;13.816;2024-03-08T15:23:41;101773.44;;;20.87;43.16
17254;BME280;32542;52.832;13.816;2024-03-08T15:26:49;101764.59;;;20.87;43.13
17254;BME280;32542;52.832;13.816;2024-03-08T15:29:56;101766.41;;;20.86;43.29
17254;BME280;32542;52.832;13.816;2024-03-08T15:33:00;101761.09;;;20.85;42.97
17254;BME280;32542;52.832;13.816;2024-03-08T15:36:05;101752.28;;;20.84;42.76
17254;BME280;32542;52.832;13.816;2024-03-08T15:39:10;101750.44;;;20.85;42.99
17254;BME280;32542;52.832;13.816;2024-03-08T15:42:16;101750.44;;;20.85;43.17
17254;BME280;32542;52.832;13.816;2024-03-08T15:45:18;101746.00;;;20.85;43.20
17254;BME280;32542;52.832;13.816;2024-03-08T15:48:21;101754.88;;;20.86;43.36
17254;BME280;32542;52.832;13.816;2024-03-08T15:51:24;101742.44;;;20.86;43.47